Time;durP1;ratioP1;P1;durP2;ratioP2;P2;SDS_P1;SDS_P2;PMS_P1;PMS_P2;Temp;Humidity;BMP_temperature;BMP_pressure;BME280_temperature;BME280_humidity;BME280_pressure;Samples;Min_cycle;Max_cycle;Signal;HPM_P1;HPM_P2
2023/01/25 00:00:01;;;;;;;21.15;9.73;;;;;;;2.36;88.65;101783.91;4973576;28;20552;-82
2023/01/25 00:02:30;;;;;;;22.30;10.80;;;;;;;2.38;88.03;101776.88;5016717;28;20042;-82
2023/01/25 00:04:57;;;;;;;24.75;11.30;;;;;;;2.31;88.50;101775.28;4999184;28;20045;-82
2023/01/25 00:07:24;;;;;;;20.92;9.95;;;;;;;2.25;88.67;101781.53;5020667;28;20045;-82
2023/01/25 00:09:50;;;;;;;18.55;9.00;;;;;;;2.35;88.12;101764.72;5017248;28;20045;-82
2023/01/25 00:12:17;;;;;;;24.77;10.77;;;;;;;2.25;88.64;101764.97;5001818;28;20046;-82
2023/01/25 00:14:44;;;;;;;23.25;10.82;;;;;;;2.36;88.30;101768.19;5004652;28;20053;-83
2023/01/25 00:17:11;;;;;;;23.60;11.13;;;;;;;2.28;88.53;101768.38;4978059;28;20137;-82
2023/01/25 00:19:37;;;;;;;23.73;11.32;;;;;;;2.34;88.08;101754.25;5002935;28;20046;-82
2023/01/25 00:22:04;;;;;;;23.42;11.15;;;;;;;2.35;88.20;101751.59;5001401;28;20120;-83
2023/01/25 00:24:31;;;;;;;22.00;10.90;;;;;;;2.31;88.50;101749.09;4971468;28;20049;-82
2023/01/25 00:26:58;;;;;;;20.75;10.27;;;;;;;2.32;88.23;101746.44;4999112;28;20042;-82
2023/01/25 00:29:25;;;;;;;25.48;11.20;;;;;;;2.28;88.46;101747.41;4986931;28;20108;-82
2023/01/25 00:35:58;;;;;;;23.17;10.63;;;;;;;2.31;88.44;101746.47;4953253;28;20872;-82
2023/01/25 00:38:34;;;;;;;24.55;9.88;;;;;;;2.35;88.35;101737.63;4991971;28;20048;-82
2023/01/25 00:41:01;;;;;;;24.42;11.10;;;;;;;2.35;88.08;101732.41;4971486;28;20042;-82
2023/01/25 00:43:28;;;;;;;20.42;9.57;;;;;;;2.31;88.42;101733.34;4960891;28;21283;-83
2023/01/25 00:46:00;;;;;;;25.17;11.23;;;;;;;2.28;88.63;101722.94;4998401;28;20552;-82
2023/01/25 00:48:29;;;;;;;23.13;9.95;;;;;;;2.25;88.89;101723.88;4971878;28;20417;-82
2023/01/25 00:51:00;;;;;;;22.02;10.77;;;;;;;2.13;89.77;101726.78;4988799;28;20413;-82
2023/01/25 00:53:27;;;;;;;25.65;11.38;;;;;;;2.16;89.39;101717.09;4985028;28;20050;-83
2023/01/25 00:55:54;;;;;;;24.50;10.43;;;;;;;2.14;89.83;101704.94;4971987;28;20089;-82
2023/01/25 00:58:21;;;;;;;22.83;10.35;;;;;;;2.00;90.98;101707.00;4978057;28;20542;-82
2023/01/25 01:00:47;;;;;;;26.58;10.52;;;;;;;2.07;90.60;101714.69;4986763;28;20041;-82
2023/01/25 01:03:15;;;;;;;23.38;10.90;;;;;;;2.13;90.19;101706.66;4968329;28;20048;-83
2023/01/25 01:05:47;;;;;;;24.13;10.65;;;;;;;2.11;90.69;101720.72;4971679;28;20042;-82
2023/01/25 01:08:15;;;;;;;24.73;11.50;;;;;;;2.13;90.17;101718.91;4954190;28;20507;-83
2023/01/25 01:11:00;;;;;;;22.92;9.98;;;;;;;2.15;89.71;101714.50;4997431;28;20045;-82
2023/01/25 01:13:28;;;;;;;22.70;10.80;;;;;;;2.11;90.30;101720.72;5002696;28;21148;-82
2023/01/25 01:20:06;;;;;;;19.67;10.00;;;;;;;2.03;90.49;101713.03;4967548;28;20050;-82
2023/01/25 01:22:32;;;;;;;21.55;9.63;;;;;;;2.11;90.09;101711.13;4987574;28;22680;-82
2023/01/25 01:24:59;;;;;;;20.88;9.80;;;;;;;2.12;90.90;101719.84;5014644;28;20050;-82
2023/01/25 01:27:26;;;;;;;21.52;10.40;;;;;;;2.17;90.25;101718.81;5000439;28;20046;-83
2023/01/25 01:29:53;;;;;;;20.73;9.05;;;;;;;2.13;90.59;101727.63;4988597;28;20042;-82
2023/01/25 01:32:19;;;;;;;25.45;11.85;;;;;;;2.09;90.14;101728.63;4974018;28;20136;-82
2023/01/25 01:34:48;;;;;;;24.15;11.27;;;;;;;2.06;90.63;101726.09;4985090;28;20053;-82
2023/01/25 01:37:15;;;;;;;24.40;10.88;;;;;;;2.03;91.03;101725.28;4954009;28;20405;-84
2023/01/25 01:39:42;;;;;;;23.67;10.00;;;;;;;2.09;90.65;101723.38;4986543;28;20632;-82
2023/01/25 01:42:09;;;;;;;21.13;10.38;;;;;;;2.02;91.28;101726.19;4969480;28;20059;-81
2023/01/25 01:45:23;;;;;;;22.95;10.00;;;;;;;1.91;91.81;101722.03;4981062;28;20054;-83
2023/01/25 01:47:50;;;;;;;19.90;9.10;;;;;;;1.91;91.59;101722.03;4947462;28;20050;-82
2023/01/25 01:50:20;;;;;;;22.20;10.57;;;;;;;1.89;91.82;101715.13;4983468;28;20076;-83
2023/01/25 01:52:48;;;;;;;24.52;10.70;;;;;;;1.93;91.77;101717.63;5015981;28;20038;-83
2023/01/25 01:55:17;;;;;;;21.75;10.55;;;;;;;1.97;91.45;101714.94;4971263;28;20042;-83
2023/01/25 01:57:48;;;;;;;20.80;9.90;;;;;;;2.03;90.85;101722.66;4968102;28;20065;-82
2023/01/25 02:00:31;;;;;;;22.63;9.95;;;;;;;2.04;91.14;101729.63;4963061;28;20046;-82
2023/01/25 02:03:00;;;;;;;19.90;10.18;;;;;;;2.02;91.38;101726.19;4950471;28;20488;-83
2023/01/25 02:05:52;;;;;;;27.02;10.90;;;;;;;1.98;91.35;101714.88;4979798;28;20201;-82
2023/01/25 02:08:20;;;;;;;21.23;9.40;;;;;;;2.03;91.15;101717.41;4914670;28;20061;-82
2023/01/25 02:10:48;;;;;;;21.58;9.93;;;;;;;1.99;91.20;101714.00;4933376;28;20805;-82
2023/01/25 02:13:17;;;;;;;20.15;10.02;;;;;;;1.95;92.05;101715.81;4955802;28;20038;-82
2023/01/25 02:15:46;;;;;;;21.58;9.93;;;;;;;1.90;91.78;101703.72;4950295;28;20047;-83
2023/01/25 02:18:13;;;;;;;24.77;9.77;;;;;;;1.98;91.54;101709.66;4965298;28;20104;-82
2023/01/25 02:20:45;;;;;;;22.98;10.15;;;;;;;2.05;91.29;101713.00;4945506;28;20054;-82
2023/01/25 02:23:12;;;;;;;27.25;10.57;;;;;;;2.03;91.38;101706.94;4932166;28;20058;-82
2023/01/25 02:25:40;;;;;;;20.63;9.55;;;;;;;2.00;91.50;101712.25;4997859;28;20045;-82
2023/01/25 02:28:17;;;;;;;23.60;9.32;;;;;;;1.91;91.60;101701.09;4997236;28;20383;-82
2023/01/25 02:30:44;;;;;;;22.75;9.98;;;;;;;1.99;91.66;101700.06;4982428;28;20069;-83
2023/01/25 02:33:11;;;;;;;22.80;9.15;;;;;;;1.92;91.01;101700.19;4965437;28;20046;-82
2023/01/25 02:35:44;;;;;;;22.27;10.43;;;;;;;1.93;91.26;101703.66;5011770;28;20046;-82
2023/01/25 02:38:16;;;;;;;24.33;10.35;;;;;;;1.97;90.96;101694.84;4979678;28;20049;-82
2023/01/25 02:41:05;;;;;;;22.33;9.20;;;;;;;1.91;90.90;101708.94;4953399;28;20512;-83
2023/01/25 02:43:48;;;;;;;18.52;8.93;;;;;;;1.92;90.71;101709.81;4790960;29;20489;-82
2023/01/25 02:46:34;;;;;;;21.00;9.90;;;;;;;1.93;90.48;101699.31;4826088;29;20105;-83
2023/01/25 02:49:01;;;;;;;21.33;9.60;;;;;;;1.97;90.63;101697.47;4810857;29;20137;-83
2023/01/25 03:02:16;;;;;;;18.88;8.15;;;;;;;1.83;90.38;101704.75;6041489;22;1280764;-82
2023/01/25 03:04:43;;;;;;;18.08;8.73;;;;;;;1.84;90.32;101709.13;6069901;23;20022;-82
2023/01/25 03:07:11;;;;;;;17.33;8.10;;;;;;;1.87;90.36;101707.28;6044681;23;20041;-82
2023/01/25 03:09:37;;;;;;;17.40;8.07;;;;;;;1.92;89.99;101694.09;6068477;23;20030;-82
2023/01/25 03:12:04;;;;;;;19.42;8.68;;;;;;;1.99;89.97;101690.44;6093186;23;20022;-82
2023/01/25 03:14:33;;;;;;;18.30;8.23;;;;;;;1.95;89.96;101681.75;6069150;23;20046;-82
2023/01/25 03:16:59;;;;;;;16.88;8.43;;;;;;;1.87;90.48;101694.19;6068567;23;20073;-82
2023/01/25 03:19:27;;;;;;;18.83;8.75;;;;;;;1.95;89.75;101679.13;6044754;23;20057;-83
2023/01/25 03:21:53;;;;;;;22.42;8.15;;;;;;;2.00;89.82;101694.75;6045916;23;20465;-82
2023/01/25 03:24:22;;;;;;;20.25;8.77;;;;;;;1.83;90.12;101684.69;6045289;23;20046;-82
2023/01/25 03:29:43;;;;;;;16.63;8.45;;;;;;;1.92;89.85;101676.59;6006139;23;20018;-82
2023/01/25 03:32:15;;;;;;;18.83;8.15;;;;;;;1.96;90.03;101677.41;6070366;23;20030;-82
2023/01/25 03:34:42;;;;;;;19.38;8.32;;;;;;;2.03;90.25;101676.34;6044417;23;20401;-82
2023/01/25 03:37:09;;;;;;;15.30;7.65;;;;;;;2.07;89.67;101679.78;6068598;23;20053;-82
2023/01/25 03:39:38;;;;;;;22.95;8.05;;;;;;;2.10;89.49;101672.69;6070279;23;20049;-82
2023/01/25 03:42:05;;;;;;;21.08;9.32;;;;;;;2.14;89.98;101673.50;6067131;23;20018;-82
2023/01/25 03:44:31;;;;;;;18.63;7.82;;;;;;;2.12;89.27;101672.66;6043871;23;20027;-82
2023/01/25 03:46:58;;;;;;;16.02;8.82;;;;;;;2.06;89.13;101672.78;6021516;23;20740;-84
2023/01/25 03:49:26;;;;;;;22.80;9.00;;;;;;;2.04;88.97;101678.09;6045585;23;20022;-82
2023/01/25 03:51:53;;;;;;;20.05;8.55;;;;;;;2.06;89.06;101671.06;6045436;23;20394;-82
2023/01/25 03:54:27;;;;;;;20.02;8.63;;;;;;;2.06;89.12;101673.69;6046097;23;20092;-82
2023/01/25 03:56:54;;;;;;;20.33;9.30;;;;;;;2.02;89.13;101671.16;6044396;23;20018;-82
2023/01/25 03:59:24;;;;;;;19.70;9.25;;;;;;;1.97;89.69;101666.03;6045617;23;20042;-82
2023/01/25 04:01:51;;;;;;;26.05;9.30;;;;;;;1.98;89.79;101666.88;6041606;23;20022;-82
2023/01/25 04:04:18;;;;;;;19.50;8.85;;;;;;;2.04;89.48;101664.97;6061351;23;20395;-81
2023/01/25 04:06:46;;;;;;;23.65;9.88;;;;;;;1.94;89.75;101663.47;6015657;23;20027;-82
2023/01/25 04:09:14;;;;;;;24.45;10.05;;;;;;;2.03;89.31;101660.63;6014721;23;20026;-82
2023/01/25 04:11:48;;;;;;;23.77;8.93;;;;;;;1.94;89.58;101656.47;6039018;23;20029;-82
2023/01/25 04:14:15;;;;;;;24.38;10.02;;;;;;;1.93;89.96;101664.34;6014077;23;20399;-83
2023/01/25 04:16:53;;;;;;;24.35;11.35;;;;;;;2.05;89.63;101660.59;6061275;23;20029;-83
2023/01/25 04:19:36;;;;;;;23.17;9.93;;;;;;;1.97;89.69;101665.16;6063887;23;20451;-83
2023/01/25 04:22:05;;;;;;;23.40;9.90;;;;;;;1.82;90.37;101658.50;6014375;23;20018;-83
2023/01/25 04:24:36;;;;;;;23.10;10.00;;;;;;;1.97;90.26;101657.31;6039696;23;20069;-82
2023/01/25 04:27:03;;;;;;;27.38;11.43;;;;;;;2.01;90.00;101656.31;6058125;23;20019;-82
2023/01/25 04:29:36;;;;;;;23.95;10.32;;;;;;;2.01;90.62;101653.69;6015341;23;20387;-82
2023/01/25 04:32:11;;;;;;;29.30;11.40;;;;;;;2.04;90.29;101651.88;6063420;23;20014;-82
2023/01/25 04:34:38;;;;;;;25.27;10.98;;;;;;;2.11;89.58;101657.81;6062191;23;20842;-82
2023/01/25 04:37:09;;;;;;;26.77;10.85;;;;;;;2.10;89.63;101651.72;6085223;23;20027;-82
2023/01/25 04:39:46;;;;;;;27.17;12.07;;;;;;;2.09;89.56;101644.78;6038244;23;20663;-84
2023/01/25 04:42:12;;;;;;;24.85;11.48;;;;;;;2.06;89.89;101642.22;6015364;23;20018;-83
2023/01/25 04:44:39;;;;;;;26.52;10.55;;;;;;;2.11;89.81;101642.97;6061397;23;20026;-83
2023/01/25 04:47:07;;;;;;;22.55;10.23;;;;;;;2.11;89.74;101642.09;6013488;23;20022;-82
2023/01/25 04:49:34;;;;;;;23.23;10.30;;;;;;;2.11;89.74;101632.50;6061674;23;20110;-83
2023/01/25 04:52:01;;;;;;;24.05;10.60;;;;;;;2.19;89.85;101640.16;6061532;23;20022;-83
2023/01/25 04:54:27;;;;;;;28.65;12.73;;;;;;;2.12;90.13;101638.59;6014292;23;20034;-82
2023/01/25 04:56:54;;;;;;;25.67;11.90;;;;;;;2.19;90.14;101645.41;6013146;23;20358;-83
2023/01/25 04:59:21;;;;;;;26.33;10.68;;;;;;;2.16;89.05;101642.84;6085278;23;20049;-83
2023/01/25 05:01:48;;;;;;;23.73;10.23;;;;;;;2.08;89.32;101639.56;6037805;23;20034;-83
2023/01/25 05:04:14;;;;;;;28.02;11.52;;;;;;;2.08;89.36;101640.41;6084004;23;20507;-83
2023/01/25 05:06:44;;;;;;;24.13;10.38;;;;;;;2.11;88.96;101640.34;6037811;23;20033;-83
2023/01/25 05:09:12;;;;;;;24.65;10.57;;;;;;;2.16;89.28;101634.97;6037685;23;20033;-83
2023/01/25 05:11:39;;;;;;;25.55;10.82;;;;;;;2.16;89.27;101634.97;6014716;23;20033;-83
2023/01/25 05:14:15;;;;;;;28.40;11.77;;;;;;;2.18;89.18;101635.81;6084791;23;20022;-83
2023/01/25 05:16:44;;;;;;;25.65;11.50;;;;;;;2.24;89.17;101637.41;6014455;23;20519;-83
2023/01/25 05:19:11;;;;;;;29.48;10.60;;;;;;;2.23;89.29;101630.47;6037963;23;20998;-84
2023/01/25 05:22:12;;;;;;;29.08;11.70;;;;;;;2.15;89.20;101628.03;5967674;23;20026;-83
2023/01/25 05:24:44;;;;;;;22.15;9.73;;;;;;;2.18;88.18;101630.56;6012381;23;20026;-83
2023/01/25 05:27:18;;;;;;;21.50;9.73;;;;;;;2.06;88.59;101625.63;6007794;23;20034;-83
2023/01/25 05:30:05;;;;;;;21.90;9.80;;;;;;;2.07;88.62;101629.97;6083430;23;20403;-84
2023/01/25 05:32:47;;;;;;;23.33;10.50;;;;;;;2.08;89.10;101624.69;6036901;23;20026;-84
2023/01/25 05:35:15;;;;;;;25.88;11.25;;;;;;;2.16;89.21;101616.63;6037793;23;20396;-84
2023/01/25 05:37:42;;;;;;;25.05;10.73;;;;;;;2.13;88.96;101609.72;6085016;23;20030;-83
2023/01/25 05:40:15;;;;;;;27.13;10.48;;;;;;;2.15;89.04;101607.06;6037329;23;20451;-84
2023/01/25 05:42:43;;;;;;;21.08;9.75;;;;;;;2.12;88.75;101608.00;6037438;23;20018;-84
2023/01/25 05:45:15;;;;;;;29.38;10.93;;;;;;;2.15;89.10;101602.69;5990306;23;20073;-84
2023/01/25 05:47:44;;;;;;;27.73;11.23;;;;;;;2.19;89.31;101595.63;6014936;23;20028;-83
2023/01/25 05:50:11;;;;;;;32.20;11.43;;;;;;;2.25;89.54;101600.69;6014169;23;20443;-83
2023/01/25 05:52:54;;;;;;;28.58;11.10;;;;;;;2.26;88.65;101599.78;6040075;23;20022;-83
2023/01/25 05:55:21;;;;;;;30.95;11.85;;;;;;;2.22;88.73;101592.91;6037077;23;20022;-84
2023/01/25 05:57:50;;;;;;;31.02;13.20;;;;;;;2.24;89.30;101593.75;6014075;23;20046;-84
2023/01/25 06:00:17;;;;;;;30.23;11.77;;;;;;;2.21;89.09;101590.31;6082289;23;20038;-84
2023/01/25 06:02:44;;;;;;;21.05;9.98;;;;;;;2.24;88.90;101583.25;6030022;23;20470;-84
2023/01/25 06:05:15;;;;;;;33.97;11.77;;;;;;;2.24;89.31;101578.00;6058252;23;20054;-84
2023/01/25 06:07:42;;;;;;;30.23;13.10;;;;;;;2.23;89.53;101584.13;6013344;23;20042;-84
2023/01/25 06:10:10;;;;;;;31.38;12.75;;;;;;;2.25;89.55;101576.25;6025811;23;20025;-83
2023/01/25 06:12:38;;;;;;;30.77;13.57;;;;;;;2.28;89.32;101576.16;6059476;23;20451;-83
2023/01/25 06:15:06;;;;;;;29.65;13.70;;;;;;;2.28;89.63;101573.53;6051206;23;20045;-84
2023/01/25 06:17:33;;;;;;;31.25;12.60;;;;;;;2.31;89.74;101571.69;6034877;23;20458;-84
2023/01/25 06:20:09;;;;;;;30.00;13.05;;;;;;;2.36;89.08;101575.03;5960619;23;20787;-84
2023/01/25 06:22:48;;;;;;;27.30;12.35;;;;;;;2.30;89.13;101575.22;6029515;23;20022;-84
2023/01/25 06:25:15;;;;;;;31.08;13.43;;;;;;;2.38;89.00;101575.88;6027937;23;20081;-84
2023/01/25 06:27:41;;;;;;;32.65;12.77;;;;;;;2.35;89.13;101575.09;6029820;23;20400;-84
2023/01/25 06:30:09;;;;;;;32.10;12.65;;;;;;;2.37;89.07;101571.53;6056416;23;20018;-84
2023/01/25 06:32:36;;;;;;;32.20;13.05;;;;;;;2.31;89.44;101574.31;6011740;23;20167;-82
2023/01/25 06:35:04;;;;;;;28.95;12.65;;;;;;;2.35;89.33;101572.47;6057820;23;20030;-82
2023/01/25 06:37:31;;;;;;;27.40;12.85;;;;;;;2.38;89.12;101578.50;6057020;23;20046;-82
2023/01/25 06:39:57;;;;;;;32.20;12.90;;;;;;;2.40;88.73;101578.47;6051693;23;20048;-81
2023/01/25 06:42:24;;;;;;;33.08;13.32;;;;;;;2.35;89.16;101575.97;6050294;23;20030;-81
2023/01/25 06:44:51;;;;;;;35.47;13.02;;;;;;;2.36;89.09;101569.81;6012082;23;20032;-82
2023/01/25 06:47:17;;;;;;;32.67;13.35;;;;;;;2.37;89.25;101576.78;6072570;23;20093;-81
2023/01/25 06:49:44;;;;;;;26.35;10.73;;;;;;;2.46;89.30;101574.81;6012444;23;20378;-82
2023/01/25 06:52:11;;;;;;;39.70;14.00;;;;;;;2.48;88.46;101583.50;6073627;23;20042;-81
2023/01/25 06:54:38;;;;;;;35.95;13.82;;;;;;;2.45;88.83;101575.72;6033849;23;20026;-82
2023/01/25 06:57:04;;;;;;;37.72;15.00;;;;;;;2.41;89.25;101574.94;6058050;23;20026;-82
2023/01/25 06:59:31;;;;;;;35.53;13.90;;;;;;;2.43;89.23;101577.53;6012370;23;20053;-82
2023/01/25 07:01:58;;;;;;;35.83;14.48;;;;;;;2.45;89.23;101578.34;6031752;23;20023;-82
2023/01/25 07:04:24;;;;;;;35.50;13.90;;;;;;;2.46;89.03;101575.66;6054886;23;20039;-82
2023/01/25 07:06:51;;;;;;;37.30;14.32;;;;;;;2.48;89.06;101567.78;6031974;23;20023;-82
2023/01/25 07:09:22;;;;;;;35.40;13.93;;;;;;;2.49;89.18;101572.94;6031789;23;20025;-81
2023/01/25 07:11:50;;;;;;;32.13;13.25;;;;;;;2.47;89.10;101568.66;6052088;23;20400;-82
2023/01/25 07:14:17;;;;;;;33.88;13.50;;;;;;;2.46;88.77;101575.66;6055031;23;20053;-82
2023/01/25 07:16:44;;;;;;;34.58;12.70;;;;;;;2.35;89.05;101569.84;6051406;23;20026;-81
2023/01/25 07:19:13;;;;;;;32.55;13.30;;;;;;;2.30;88.96;101567.34;6050634;23;20114;-82
2023/01/25 07:21:41;;;;;;;35.65;13.90;;;;;;;2.30;88.95;101572.59;6073546;23;20033;-82
2023/01/25 07:24:12;;;;;;;32.20;13.48;;;;;;;2.30;88.87;101569.97;6073837;23;20098;-81
2023/01/25 07:26:39;;;;;;;37.53;14.70;;;;;;;2.31;88.94;101565.59;6049858;23;20026;-82
2023/01/25 07:29:08;;;;;;;38.95;15.23;;;;;;;2.28;89.59;101569.16;6027999;23;20354;-82
2023/01/25 07:31:36;;;;;;;37.53;14.20;;;;;;;2.29;88.96;101557.78;6051652;23;20093;-81
2023/01/25 07:34:03;;;;;;;40.03;14.85;;;;;;;2.31;88.94;101555.94;6054585;23;20090;-82
2023/01/25 07:36:31;;;;;;;32.95;13.07;;;;;;;2.32;89.38;101559.47;6031377;23;20401;-82
2023/01/25 07:38:57;;;;;;;36.53;14.18;;;;;;;2.37;89.10;101553.19;6057968;23;20018;-82
2023/01/25 07:41:25;;;;;;;41.92;15.50;;;;;;;2.27;89.66;101558.72;6036986;23;20351;-82
2023/01/25 07:43:52;;;;;;;31.70;14.00;;;;;;;2.32;88.94;101562.94;6056928;23;20031;-81
2023/01/25 07:46:29;;;;;;;33.33;13.55;;;;;;;2.24;88.72;101566.63;6039963;23;20113;-82
2023/01/25 07:48:57;;;;;;;28.63;12.65;;;;;;;2.27;88.16;101571.81;6076890;23;20018;-81
2023/01/25 07:51:29;;;;;;;31.90;13.02;;;;;;;2.24;88.81;101558.78;6014092;23;20038;-82
2023/01/25 07:54:00;;;;;;;30.13;12.38;;;;;;;2.27;88.74;101561.34;6053027;23;20025;-82
2023/01/25 07:56:33;;;;;;;19.80;9.20;;;;;;;2.28;88.04;101571.78;6051143;23;20023;-82
2023/01/25 07:59:01;;;;;;;19.35;8.38;;;;;;;2.30;87.40;101569.97;6075379;23;20348;-82
2023/01/25 08:01:33;;;;;;;17.92;7.70;;;;;;;2.33;87.34;101567.25;6012182;23;20706;-81
2023/01/25 08:04:01;;;;;;;22.85;9.13;;;;;;;2.35;87.69;101572.47;6052651;23;20494;-82
2023/01/25 08:06:34;;;;;;;23.17;9.95;;;;;;;2.40;87.58;101573.22;6035519;23;20030;-82
2023/01/25 08:09:07;;;;;;;21.48;8.77;;;;;;;2.41;87.41;101563.59;6052874;23;20106;-82
2023/01/25 08:11:34;;;;;;;;;;;;;;;2.32;86.80;101556.84;6009028;23;20325;-81
2023/01/25 08:14:02;;;;;;;22.77;9.88;;;;;;;2.42;87.39;101562.66;6075179;23;19945;-82
2023/01/25 08:16:30;;;;;;;24.65;9.98;;;;;;;2.45;87.53;101565.22;6052003;23;20455;-81
2023/01/25 08:18:58;;;;;;;21.88;9.50;;;;;;;2.46;87.37;101567.78;6009094;23;20031;-82
2023/01/25 08:21:29;;;;;;;26.73;10.20;;;;;;;2.44;86.82;101561.72;6032876;23;20454;-82
2023/01/25 08:24:00;;;;;;;25.60;10.50;;;;;;;2.43;86.59;101561.78;6076394;23;20038;-82
2023/01/25 08:26:27;;;;;;;23.95;9.75;;;;;;;2.45;86.98;101565.22;6033061;23;20102;-82
2023/01/25 08:28:55;;;;;;;21.33;9.45;;;;;;;2.47;86.91;101560.78;6053152;23;20019;-81
2023/01/25 08:31:24;;;;;;;21.50;9.52;;;;;;;2.46;86.62;101559.94;6012671;23;20399;-81
2023/01/25 08:33:51;;;;;;;23.00;10.20;;;;;;;2.50;86.77;101560.72;6035987;23;20481;-81
2023/01/25 08:36:19;;;;;;;23.10;9.35;;;;;;;2.47;86.39;101566.03;6027287;23;20033;-81
2023/01/25 08:38:46;;;;;;;19.17;9.50;;;;;;;2.43;86.12;101562.66;6028369;23;20022;-82
2023/01/25 08:41:15;;;;;;;21.52;9.85;;;;;;;2.40;86.12;101562.72;6076444;23;20074;-82
2023/01/25 08:43:43;;;;;;;28.00;10.40;;;;;;;2.40;85.97;101554.88;6052273;23;20029;-81
2023/01/25 08:46:11;;;;;;;27.98;10.05;;;;;;;2.37;86.07;101560.19;6056989;23;20023;-82
2023/01/25 08:48:38;;;;;;;26.85;11.75;;;;;;;2.38;86.48;101549.66;6076117;23;20022;-81
2023/01/25 08:51:07;;;;;;;24.95;10.73;;;;;;;2.39;86.23;101550.50;6028710;23;20027;-81
2023/01/25 08:53:34;;;;;;;24.75;9.52;;;;;;;2.41;86.43;101550.47;6075595;23;20026;-82
2023/01/25 08:56:03;;;;;;;25.20;10.57;;;;;;;2.39;86.31;101553.13;6032825;23;20022;-82
2023/01/25 08:58:30;;;;;;;23.75;10.07;;;;;;;2.45;86.55;101539.00;6008364;23;20027;-82
2023/01/25 09:01:05;;;;;;;31.30;11.15;;;;;;;2.39;86.31;101533.03;6033101;23;20019;-81
2023/01/25 09:03:36;;;;;;;26.05;11.82;;;;;;;2.43;86.41;101532.94;6034604;23;20436;-82
2023/01/25 09:06:03;;;;;;;27.75;10.88;;;;;;;2.36;86.29;101537.50;6075804;23;20111;-82
2023/01/25 09:08:31;;;;;;;26.40;10.93;;;;;;;2.32;86.24;101533.25;6051181;23;20019;-81
2023/01/25 09:11:02;;;;;;;25.05;11.07;;;;;;;2.30;86.80;101532.41;6035876;23;20030;-81
2023/01/25 09:13:29;;;;;;;28.15;10.68;;;;;;;2.27;86.41;101533.38;6075326;23;20029;-81
2023/01/25 09:16:00;;;;;;;26.85;10.43;;;;;;;2.26;86.87;101539.50;6012351;23;20029;-81
2023/01/25 09:18:28;;;;;;;31.55;10.73;;;;;;;2.28;87.08;101521.97;6049845;23;20030;-82
2023/01/25 09:20:55;;;;;;;25.65;11.25;;;;;;;2.24;87.36;101535.19;6052500;23;20018;-82
2023/01/25 09:23:22;;;;;;;30.25;11.50;;;;;;;2.23;87.59;101531.72;6076507;23;20084;-82
2023/01/25 09:25:59;;;;;;;30.88;11.73;;;;;;;2.23;88.02;101529.09;6050645;23;20105;-82
2023/01/25 09:28:28;;;;;;;26.67;10.73;;;;;;;2.25;87.86;101527.31;6057921;23;20030;-81
2023/01/25 09:30:56;;;;;;;25.75;10.82;;;;;;;2.26;87.97;101531.63;6052099;23;20351;-81
2023/01/25 09:34:01;;;;;;;26.52;10.75;;;;;;;2.20;87.43;101520.47;6006020;23;20443;-81
2023/01/25 09:36:28;;;;;;;28.17;10.35;;;;;;;2.16;87.83;101525.78;6085359;23;20022;-82
2023/01/25 09:38:55;;;;;;;25.83;11.10;;;;;;;2.18;87.74;101523.97;6053230;23;20078;-81
2023/01/25 09:41:42;;;;;;;27.50;10.43;;;;;;;2.22;87.33;101523.91;6051423;23;20131;-82
2023/01/25 09:44:40;;;;;;;27.58;9.73;;;;;;;2.13;86.88;101533.72;6031962;23;20056;-81
2023/01/25 09:47:20;;;;;;;25.95;9.45;;;;;;;2.18;86.41;101525.72;6010374;23;20101;-82
2023/01/25 09:49:56;;;;;;;26.20;10.50;;;;;;;2.18;86.57;101521.34;6060262;23;20022;-82
2023/01/25 09:52:57;;;;;;;26.05;10.15;;;;;;;2.17;86.93;101518.78;6075789;23;20059;-82
2023/01/25 09:55:26;;;;;;;20.67;8.98;;;;;;;2.22;87.06;101524.75;5981281;23;20041;-81
2023/01/25 09:57:55;;;;;;;22.30;9.25;;;;;;;2.21;86.56;101511.69;6051295;23;20097;-82
2023/01/25 10:00:27;;;;;;;21.27;8.70;;;;;;;2.17;86.95;101519.63;6033800;23;20030;-81
2023/01/25 10:03:26;;;;;;;23.48;9.10;;;;;;;2.17;86.22;101513.53;6034012;23;20076;-81
2023/01/25 10:05:55;;;;;;;19.60;8.23;;;;;;;2.16;86.90;101509.19;5993416;23;20019;-81
2023/01/25 10:08:43;;;;;;;22.42;9.05;;;;;;;2.17;86.91;101506.53;6050872;23;20034;-81
2023/01/25 10:11:24;;;;;;;23.15;9.07;;;;;;;2.20;87.21;101508.22;5987162;23;20324;-82
2023/01/25 10:13:50;;;;;;;23.15;8.20;;;;;;;2.25;86.56;101506.31;6009245;23;20038;-82
2023/01/25 10:16:46;;;;;;;21.05;8.52;;;;;;;2.16;86.49;101510.06;6050842;23;20097;-82
2023/01/25 10:19:21;;;;;;;21.70;8.75;;;;;;;2.18;86.28;101502.16;6010259;23;20043;-82
2023/01/25 10:21:57;;;;;;;25.98;8.98;;;;;;;2.17;86.18;101501.28;6055698;23;20082;-81
2023/01/25 10:24:40;;;;;;;21.85;8.88;;;;;;;2.22;86.67;101501.19;5984734;23;20034;-82
2023/01/25 10:27:25;;;;;;;21.37;7.37;;;;;;;2.21;85.41;101498.59;6005530;23;20028;-82
2023/01/25 10:29:56;;;;;;;19.95;8.25;;;;;;;2.14;86.11;101495.28;6031120;23;20023;-82
2023/01/25 10:32:33;;;;;;;27.60;11.30;;;;;;;2.21;86.01;101491.56;6074331;23;20023;-82
2023/01/25 10:35:29;;;;;;;23.88;9.77;;;;;;;2.21;85.84;101491.56;5991673;23;20053;-82
2023/01/25 10:38:09;;;;;;;22.38;9.38;;;;;;;2.17;86.02;101496.06;6014866;23;20101;-82
2023/01/25 10:40:40;;;;;;;;;;;;;;;2.06;85.83;101484.13;6050851;23;20088;-81
2023/01/25 10:43:14;;;;;;;20.92;9.02;;;;;;;2.07;85.96;101481.47;6050967;23;19988;-82
2023/01/25 10:45:43;;;;;;;23.15;8.23;;;;;;;2.15;85.91;101481.28;6075132;23;20030;-82
2023/01/25 10:48:14;;;;;;;22.42;9.38;;;;;;;2.18;86.42;101483.81;6034311;23;20090;-81
2023/01/25 10:50:45;;;;;;;20.90;8.13;;;;;;;2.18;85.77;101482.03;6026760;23;20072;-82
2023/01/25 10:53:44;;;;;;;20.33;8.02;;;;;;;2.19;84.87;101477.69;6052805;23;20037;-81
2023/01/25 10:56:23;;;;;;;23.92;9.43;;;;;;;2.26;84.58;101471.34;6054876;23;20019;-82
2023/01/25 10:58:53;;;;;;;22.10;8.55;;;;;;;2.21;85.24;101470.59;6009797;23;20022;-82
2023/01/25 11:01:31;;;;;;;21.77;8.90;;;;;;;2.05;84.59;101467.56;6047027;23;20037;-82
2023/01/25 11:03:59;;;;;;;19.95;8.13;;;;;;;2.12;84.87;101449.91;6060974;23;20093;-82
2023/01/25 11:06:33;;;;;;;23.33;9.07;;;;;;;2.09;84.71;101455.25;6061637;23;20029;-81
2023/01/25 11:09:05;;;;;;;24.50;9.20;;;;;;;2.07;85.50;101455.28;6031383;23;20037;-81
2023/01/25 11:11:37;;;;;;;20.38;8.18;;;;;;;2.03;85.01;101458.88;6051855;23;20093;-81
2023/01/25 11:14:15;;;;;;;19.17;8.13;;;;;;;2.02;85.15;101451.91;5970319;23;20097;-82
2023/01/25 11:16:45;;;;;;;20.70;8.10;;;;;;;2.07;85.16;101446.56;6042196;23;20025;-82
2023/01/25 11:19:38;;;;;;;26.67;9.35;;;;;;;2.08;85.41;101443.88;6067433;23;20454;-81
2023/01/25 11:22:20;;;;;;;24.05;8.90;;;;;;;2.09;84.95;101434.28;6007858;23;20021;-81
2023/01/25 11:24:47;;;;;;;21.88;9.07;;;;;;;2.08;85.39;101433.41;6019515;23;20028;-82
2023/01/25 11:27:20;;;;;;;21.92;8.70;;;;;;;2.15;85.11;101424.47;6117107;23;20035;-81
2023/01/25 11:30:13;;;;;;;20.83;10.02;;;;;;;2.10;85.93;101420.28;6115730;23;20032;-81
2023/01/25 11:32:40;;;;;;;24.00;9.63;;;;;;;2.16;84.88;101405.25;6034213;23;20085;-81
2023/01/25 11:35:15;;;;;;;21.85;8.88;;;;;;;2.11;84.97;101409.75;6038343;23;20049;-81
2023/01/25 11:38:13;;;;;;;23.15;9.35;;;;;;;2.04;85.04;101405.59;6036727;23;20514;-81
2023/01/25 11:40:49;;;;;;;23.08;9.18;;;;;;;2.00;85.91;101405.72;5928728;23;20102;-81
2023/01/25 11:43:18;;;;;;;20.88;8.93;;;;;;;2.13;85.62;101389.59;5934640;23;20023;-81
2023/01/25 11:45:51;;;;;;;25.17;10.07;;;;;;;2.19;85.11;101388.56;6002449;23;20083;-82
2023/01/25 11:48:33;;;;;;;18.88;8.52;;;;;;;2.11;84.80;101388.78;6002927;23;20023;-82
2023/01/25 11:51:10;;;;;;;26.25;9.65;;;;;;;2.11;85.14;101386.19;5936804;23;20023;-82
2023/01/25 11:53:48;;;;;;;28.75;9.60;;;;;;;2.11;85.18;101380.94;6004026;23;20070;-81
2023/01/25 11:56:45;;;;;;;29.08;11.13;;;;;;;2.05;85.71;101375.00;5980459;23;20424;-81
2023/01/25 11:59:18;;;;;;;25.63;10.27;;;;;;;2.15;85.59;101361.59;5896716;23;20387;-81
2023/01/25 12:01:56;;;;;;;24.40;9.83;;;;;;;2.18;85.21;101355.38;6025937;23;20031;-82